createdAt,value
2018-09-19T00:02:17.192Z,7.13
2018-09-19T00:04:45.731Z,6.93
2018-09-19T00:07:14.397Z,6.57
2018-09-19T00:09:42.997Z,6.93
2018-09-19T00:12:11.568Z,6.80
2018-09-19T00:14:40.276Z,6.77
2018-09-19T00:17:08.897Z,6.43
2018-09-19T00:19:37.441Z,7.00
2018-09-19T00:22:05.989Z,6.97
2018-09-19T00:24:34.595Z,7.37
2018-09-19T00:27:03.115Z,7.00
2018-09-19T00:29:31.733Z,6.67
2018-09-19T00:32:01.137Z,6.77
2018-09-19T00:34:29.828Z,6.90
2018-09-19T00:36:58.585Z,7.13
2018-09-19T00:39:27.081Z,7.20
2018-09-19T00:41:55.587Z,7.30
2018-09-19T00:44:24.228Z,7.13
2018-09-19T00:46:52.711Z,7.40
2018-09-19T00:49:21.384Z,7.90
2018-09-19T00:51:49.897Z,8.30
2018-09-19T00:54:18.474Z,8.00
2018-09-19T00:56:47.131Z,8.20
2018-09-19T00:59:15.690Z,8.73
2018-09-19T01:01:45.034Z,8.80
2018-09-19T01:04:13.598Z,8.30
2018-09-19T01:06:42.294Z,8.80
2018-09-19T01:09:10.979Z,9.00
2018-09-19T01:11:39.983Z,9.07
2018-09-19T01:14:08.716Z,8.20
2018-09-19T01:16:37.286Z,7.93
2018-09-19T01:19:05.869Z,8.03
2018-09-19T01:21:34.424Z,8.20
2018-09-19T01:24:03.137Z,8.40
2018-09-19T01:26:32.467Z,8.67
2018-09-19T01:29:01.052Z,8.30
2018-09-19T01:31:29.599Z,8.53
2018-09-19T01:33:58.244Z,7.53
2018-09-19T01:36:27.802Z,7.70
2018-09-19T01:38:56.515Z,8.03
2018-09-19T01:41:25.015Z,8.10
2018-09-19T01:43:53.679Z,8.13
2018-09-19T01:46:22.208Z,8.23
2018-09-19T01:48:51.070Z,8.20
2018-09-19T01:51:19.682Z,8.60
2018-09-19T01:53:49.263Z,8.47
2018-09-19T01:56:18.496Z,8.23
2018-09-19T01:58:47.141Z,7.93
2018-09-19T02:01:15.684Z,8.47
2018-09-19T02:03:44.318Z,7.43
2018-09-19T02:06:12.939Z,8.40
2018-09-19T02:08:41.735Z,7.93
2018-09-19T02:11:10.363Z,8.45
2018-09-19T02:13:38.956Z,8.10
2018-09-19T02:16:07.569Z,8.07
2018-09-19T02:18:36.890Z,8.30
2018-09-19T02:21:05.603Z,8.27
2018-09-19T02:23:34.224Z,7.70
2018-09-19T02:26:03.025Z,7.93
2018-09-19T02:28:31.723Z,8.20
2018-09-19T02:31:01.214Z,8.03
2018-09-19T02:33:30.250Z,8.27
2018-09-19T02:35:58.926Z,8.10
2018-09-19T02:38:27.543Z,8.07
2018-09-19T02:40:56.043Z,7.87
2018-09-19T02:43:24.668Z,8.73
2018-09-19T02:45:53.282Z,7.73
2018-09-19T02:48:21.869Z,8.40
2018-09-19T02:50:50.537Z,7.60
2018-09-19T02:53:19.107Z,7.90
2018-09-19T02:55:47.619Z,8.23
2018-09-19T02:58:16.541Z,8.43
2018-09-19T03:00:45.225Z,8.00
2018-09-19T03:03:14.851Z,8.37
2018-09-19T03:05:43.392Z,8.10
2018-09-19T03:08:12.013Z,8.60
2018-09-19T03:10:40.530Z,7.87
2018-09-19T03:13:09.073Z,8.37
2018-09-19T03:15:37.726Z,8.43
2018-09-19T03:18:06.291Z,8.43
2018-09-19T03:20:34.841Z,8.27
2018-09-19T03:23:03.570Z,8.80
2018-09-19T03:25:32.134Z,8.83
2018-09-19T03:28:00.816Z,8.47
2018-09-19T03:30:29.855Z,8.80
2018-09-19T03:32:58.328Z,9.17
2018-09-19T03:35:26.944Z,9.07
2018-09-19T03:37:55.429Z,9.13
2018-09-19T03:40:25.009Z,8.83
2018-09-19T03:42:53.595Z,9.40
2018-09-19T03:45:22.267Z,9.13
2018-09-19T03:47:50.937Z,9.20
2018-09-19T03:50:19.697Z,9.13
2018-09-19T03:52:48.785Z,9.10
2018-09-19T03:55:17.275Z,8.77
2018-09-19T03:57:45.733Z,9.47
2018-09-19T04:00:14.458Z,9.83
2018-09-19T04:02:42.984Z,9.23
2018-09-19T04:05:12.145Z,9.53
2018-09-19T04:07:40.627Z,9.83
2018-09-19T04:10:09.163Z,9.90
2018-09-19T04:12:37.708Z,9.57
2018-09-19T04:15:06.280Z,9.70
2018-09-19T04:17:34.920Z,10.10
2018-09-19T04:20:03.540Z,9.80
2018-09-19T04:22:32.065Z,10.77
2018-09-19T04:25:00.587Z,9.90
2018-09-19T04:27:29.193Z,10.47
2018-09-19T04:29:57.760Z,10.33
2018-09-19T04:32:26.494Z,9.77
2018-09-19T04:34:55.057Z,10.20
2018-09-19T04:37:23.644Z,10.03
2018-09-19T04:39:52.294Z,10.03
2018-09-19T04:42:20.873Z,10.07
2018-09-19T04:44:49.402Z,9.73
2018-09-19T04:47:18.081Z,9.80
2018-09-19T04:49:48.345Z,10.23
2018-09-19T04:52:16.965Z,9.83
2018-09-19T04:54:45.710Z,10.10
2018-09-19T04:57:14.298Z,11.30
2018-09-19T04:59:43.032Z,10.17
2018-09-19T05:02:11.591Z,11.63
2018-09-19T05:04:40.361Z,11.13
2018-09-19T05:07:09.666Z,11.60
2018-09-19T05:09:38.151Z,11.03
2018-09-19T05:12:06.949Z,12.33
2018-09-19T05:14:35.547Z,11.80
2018-09-19T05:17:04.231Z,11.80
2018-09-19T05:19:33.414Z,11.43
2018-09-19T05:22:03.023Z,10.07
2018-09-19T05:24:32.432Z,9.97
2018-09-19T05:27:01.029Z,10.57
2018-09-19T05:29:29.624Z,9.47
2018-09-19T05:31:58.247Z,9.40
2018-09-19T05:34:26.788Z,9.40
2018-09-19T05:36:55.566Z,7.07
2018-09-19T05:39:24.119Z,8.10
2018-09-19T05:41:52.988Z,8.80
2018-09-19T05:44:21.658Z,9.10
2018-09-19T05:46:50.785Z,9.00
2018-09-19T05:49:19.336Z,8.90
2018-09-19T05:51:48.032Z,9.57
2018-09-19T05:54:16.662Z,9.13
2018-09-19T05:56:45.309Z,7.90
2018-09-19T05:59:14.031Z,8.37
2018-09-19T06:01:42.613Z,8.17
2018-09-19T06:04:11.239Z,8.77
2018-09-19T06:06:39.816Z,8.80
2018-09-19T06:09:09.602Z,8.17
2018-09-19T06:11:38.191Z,8.93
2018-09-19T06:14:06.830Z,8.30
2018-09-19T06:16:35.574Z,7.83
2018-09-19T06:19:04.331Z,7.87
2018-09-19T06:21:32.928Z,7.93
2018-09-19T06:24:01.561Z,7.73
2018-09-19T06:26:30.160Z,8.20
2018-09-19T06:28:58.678Z,7.80
2018-09-19T06:31:27.274Z,7.80
2018-09-19T06:33:56.881Z,8.07
2018-09-19T06:36:25.449Z,7.77
2018-09-19T06:38:53.974Z,7.80
2018-09-19T06:41:22.572Z,7.70
2018-09-19T06:43:51.094Z,7.63
2018-09-19T06:46:20.592Z,7.83
2018-09-19T06:48:49.160Z,8.07
2018-09-19T06:51:17.677Z,8.40
2018-09-19T06:53:47.027Z,7.90
2018-09-19T06:56:15.609Z,8.20
2018-09-19T06:58:44.467Z,8.27
2018-09-19T07:01:13.085Z,7.50
2018-09-19T07:03:41.689Z,7.37
2018-09-19T07:06:10.230Z,8.27
2018-09-19T07:08:38.753Z,7.57
2018-09-19T07:11:07.324Z,7.73
2018-09-19T07:13:35.933Z,8.07
2018-09-19T07:16:04.704Z,7.47
2018-09-19T07:18:33.345Z,9.03
2018-09-19T07:21:01.991Z,7.50
2018-09-19T07:23:30.594Z,7.03
2018-09-19T07:25:59.285Z,8.00
2018-09-19T07:28:27.939Z,7.80
2018-09-19T07:30:56.519Z,7.53
2018-09-19T07:33:25.054Z,7.70
2018-09-19T07:35:54.342Z,7.57
2018-09-19T07:38:22.960Z,7.30
2018-09-19T07:40:51.622Z,7.57
2018-09-19T07:43:20.225Z,7.20
2018-09-19T07:45:49.039Z,7.03
2018-09-19T07:48:17.784Z,6.90
2018-09-19T07:50:46.445Z,7.20
2018-09-19T07:53:21.727Z,6.70
2018-09-19T07:55:50.393Z,7.13
2018-09-19T07:58:19.130Z,7.40
2018-09-19T08:00:47.884Z,7.67
2018-09-19T08:03:16.492Z,7.00
2018-09-19T08:05:44.946Z,7.40
2018-09-19T08:08:14.162Z,7.30
2018-09-19T08:10:43.160Z,7.90
2018-09-19T08:13:12.442Z,7.43
2018-09-19T08:15:42.011Z,6.87
2018-09-19T08:18:10.730Z,7.90
2018-09-19T08:20:39.461Z,7.27
2018-09-19T08:23:08.842Z,7.27
2018-09-19T08:25:37.380Z,7.10
2018-09-19T08:28:06.057Z,7.33
2018-09-19T08:30:35.191Z,7.17
2018-09-19T08:33:03.983Z,7.07
2018-09-19T08:35:32.616Z,7.27
2018-09-19T08:38:02.281Z,7.13
2018-09-19T08:40:30.805Z,7.23
2018-09-19T08:42:59.522Z,7.00
2018-09-19T08:45:28.333Z,7.50
2018-09-19T08:47:57.062Z,7.10
2018-09-19T08:50:25.636Z,7.27
2018-09-19T08:52:54.218Z,7.87
2018-09-19T08:55:22.983Z,6.97
2018-09-19T08:57:51.686Z,7.33
2018-09-19T09:00:20.536Z,8.07
2018-09-19T09:02:49.509Z,6.93
2018-09-19T09:05:18.117Z,7.57
2018-09-19T09:07:46.775Z,6.83
2018-09-19T09:10:15.444Z,7.23
2018-09-19T09:12:46.161Z,7.23
2018-09-19T09:15:14.771Z,7.33
2018-09-19T09:17:43.478Z,7.23
2018-09-19T09:20:12.114Z,7.97
2018-09-19T09:22:40.611Z,7.97
2018-09-19T09:25:09.521Z,7.80
2018-09-19T09:27:38.108Z,7.07
2018-09-19T09:30:07.220Z,8.00
2018-09-19T09:32:36.021Z,7.40
2018-09-19T09:35:05.101Z,7.27
2018-09-19T09:37:33.798Z,7.93
2018-09-19T09:40:02.464Z,6.97
2018-09-19T09:42:31.269Z,7.33
2018-09-19T09:44:59.859Z,7.50
2018-09-19T09:47:28.450Z,7.87
2018-09-19T09:49:57.155Z,7.90
2018-09-19T09:52:26.011Z,7.47
2018-09-19T09:54:54.655Z,7.43
2018-09-19T09:57:23.325Z,8.07
2018-09-19T09:59:51.975Z,7.80
2018-09-19T10:02:20.501Z,8.27
2018-09-19T10:04:49.781Z,8.00
2018-09-19T10:07:18.597Z,8.10
2018-09-19T10:09:47.317Z,7.90
2018-09-19T10:12:16.026Z,7.67
2018-09-19T10:14:44.586Z,8.70
2018-09-19T10:17:13.248Z,7.53
2018-09-19T10:19:41.818Z,7.57
2018-09-19T10:22:10.431Z,8.30
2018-09-19T10:24:39.058Z,7.10
2018-09-19T10:27:07.590Z,7.30
2018-09-19T10:29:37.403Z,7.70
2018-09-19T10:32:05.990Z,7.60
2018-09-19T10:34:34.978Z,7.53
2018-09-19T10:37:03.600Z,7.97
2018-09-19T10:39:32.310Z,7.33
2018-09-19T10:42:00.981Z,7.90
2018-09-19T10:44:29.665Z,7.60
2018-09-19T10:46:58.429Z,7.60
2018-09-19T10:49:27.266Z,7.90
2018-09-19T10:51:56.017Z,7.13
2018-09-19T10:54:24.681Z,7.83
2018-09-19T10:56:53.237Z,7.17
2018-09-19T10:59:22.085Z,7.63
2018-09-19T11:01:50.602Z,7.60
2018-09-19T11:04:19.189Z,7.73
2018-09-19T11:06:47.950Z,7.40
2018-09-19T11:09:16.546Z,7.20
2018-09-19T11:11:45.265Z,7.07
2018-09-19T11:14:13.859Z,6.90
2018-09-19T11:16:42.526Z,7.03
2018-09-19T11:19:11.151Z,6.83
2018-09-19T11:21:39.738Z,7.07
2018-09-19T11:24:08.811Z,6.87
2018-09-19T11:26:37.587Z,7.27
2018-09-19T11:29:06.166Z,7.40
2018-09-19T11:31:35.012Z,7.00
2018-09-19T11:34:03.833Z,6.92
2018-09-19T11:36:32.536Z,6.75
2018-09-19T11:39:01.074Z,7.20
2018-09-19T11:41:29.700Z,6.80
2018-09-19T11:43:58.230Z,6.70
2018-09-19T11:46:27.941Z,7.20
2018-09-19T11:48:56.481Z,6.67
2018-09-19T11:51:25.039Z,7.25
2018-09-19T11:53:53.614Z,6.72
2018-09-19T11:56:22.208Z,7.25
2018-09-19T11:58:50.793Z,7.28
2018-09-19T12:01:19.552Z,7.53
2018-09-19T12:03:48.926Z,7.00
2018-09-19T12:06:17.478Z,7.08
2018-09-19T12:08:46.065Z,6.62
2018-09-19T12:11:14.578Z,7.53
2018-09-19T12:13:43.226Z,6.62
2018-09-19T12:16:11.826Z,6.47
2018-09-19T12:18:40.494Z,7.08
2018-09-19T12:21:09.104Z,7.08
2018-09-19T12:23:38.379Z,6.97
2018-09-19T12:26:07.091Z,6.95
2018-09-19T12:28:35.685Z,7.25
2018-09-19T12:31:04.333Z,6.70
2018-09-19T12:33:33.230Z,6.97
2018-09-19T12:36:01.781Z,6.78
2018-09-19T12:38:30.497Z,6.90
2018-09-19T12:40:59.032Z,7.03
2018-09-19T12:43:27.607Z,6.70
2018-09-19T12:45:56.215Z,8.73
2018-09-19T12:48:24.758Z,6.90
2018-09-19T12:50:53.383Z,6.97
2018-09-19T12:53:23.798Z,7.08
2018-09-19T12:55:53.528Z,6.25
2018-09-19T12:58:22.115Z,6.97
2018-09-19T13:00:51.368Z,6.65
2018-09-19T13:03:19.921Z,7.05
2018-09-19T13:05:49.519Z,6.58
2018-09-19T13:08:18.221Z,6.37
2018-09-19T13:10:47.915Z,6.22
2018-09-19T13:13:16.710Z,6.15
2018-09-19T13:15:45.583Z,7.35
2018-09-19T13:18:14.108Z,5.85
2018-09-19T13:20:42.847Z,6.35
2018-09-19T13:23:11.339Z,6.62
2018-09-19T13:25:40.029Z,6.78
2018-09-19T13:28:08.997Z,6.42
2018-09-19T13:30:37.791Z,6.28
2018-09-19T13:33:06.403Z,6.30
2018-09-19T13:35:34.947Z,6.47
2018-09-19T13:38:03.656Z,5.67
2018-09-19T13:40:32.169Z,6.35
2018-09-19T13:43:00.806Z,6.25
2018-09-19T13:45:29.501Z,5.95
2018-09-19T13:47:58.182Z,6.70
2018-09-19T13:50:36.950Z,6.30
2018-09-19T13:53:05.482Z,6.03
2018-09-19T13:55:33.993Z,6.70
2018-09-19T13:58:02.565Z,6.72
2018-09-19T14:00:31.685Z,6.33
2018-09-19T14:03:00.309Z,6.45
2018-09-19T14:05:28.890Z,6.60
2018-09-19T14:07:57.434Z,6.65
2018-09-19T14:10:26.057Z,6.42
2018-09-19T14:12:54.526Z,6.22
2018-09-19T14:15:23.236Z,6.30
2018-09-19T14:17:52.805Z,6.33
2018-09-19T14:20:21.294Z,6.30
2018-09-19T14:22:49.952Z,6.97
2018-09-19T14:25:18.541Z,6.47
2018-09-19T14:27:47.033Z,6.65
2018-09-19T14:30:15.856Z,6.40
2018-09-19T14:32:44.531Z,6.65
2018-09-19T14:35:13.389Z,6.85
2018-09-19T14:37:41.918Z,6.92
2018-09-19T14:40:10.507Z,7.90
2018-09-19T14:42:40.006Z,8.38
2018-09-19T14:45:08.727Z,7.05
2018-09-19T14:47:37.377Z,6.62
2018-09-19T14:50:06.936Z,7.35
2018-09-19T14:52:35.485Z,6.60
2018-09-19T14:55:04.330Z,7.58
2018-09-19T14:57:38.407Z,7.30
2018-09-19T15:00:08.468Z,7.30
2018-09-19T15:02:39.267Z,7.00
2018-09-19T15:05:07.870Z,18.25
2018-09-19T15:07:36.413Z,13.98
2018-09-19T15:10:05.088Z,8.58
2018-09-19T15:12:33.563Z,7.30
2018-09-19T15:15:02.133Z,7.08
2018-09-19T15:17:30.757Z,7.40
2018-09-19T15:19:59.340Z,7.58
2018-09-19T15:22:27.958Z,7.57
2018-09-19T15:24:56.697Z,7.12
2018-09-19T15:27:25.379Z,7.37
2018-09-19T15:29:54.159Z,7.10
2018-09-19T15:32:22.825Z,6.93
2018-09-19T15:34:51.620Z,7.08
2018-09-19T15:37:20.159Z,6.95
2018-09-19T15:39:48.644Z,7.40
2018-09-19T15:42:17.195Z,7.03
2018-09-19T15:44:46.049Z,6.80
2018-09-19T15:47:14.783Z,6.62
2018-09-19T15:49:43.348Z,6.83
2018-09-19T15:52:12.067Z,6.70
2018-09-19T15:54:40.724Z,6.77
2018-09-19T15:57:10.353Z,6.50
2018-09-19T15:59:39.112Z,7.42
2018-09-19T16:02:07.741Z,7.03
2018-09-19T16:04:36.668Z,7.23
2018-09-19T16:07:05.807Z,6.93
2018-09-19T16:09:34.618Z,7.07
2018-09-19T16:12:02.986Z,6.73
2018-09-19T16:14:31.605Z,6.80
2018-09-19T16:17:01.271Z,6.73
2018-09-19T16:19:30.539Z,7.53
2018-09-19T16:21:59.091Z,7.33
2018-09-19T16:24:27.985Z,7.37
2018-09-19T16:26:56.455Z,7.53
2018-09-19T16:29:25.357Z,7.50
2018-09-19T16:31:53.961Z,7.83
2018-09-19T16:34:22.813Z,8.03
2018-09-19T16:36:51.278Z,9.10
2018-09-19T16:39:19.834Z,26.40
2018-09-19T16:41:48.482Z,14.57
2018-09-19T16:44:17.285Z,9.50
2018-09-19T16:46:46.083Z,9.33
2018-09-19T16:49:14.898Z,9.87
2018-09-19T16:51:43.652Z,9.03
2018-09-19T16:54:12.271Z,9.40
2018-09-19T16:56:41.530Z,9.87
2018-09-19T16:59:10.131Z,11.63
2018-09-19T17:01:39.021Z,11.43
2018-09-19T17:04:08.577Z,11.43
2018-09-19T17:06:37.271Z,10.10
2018-09-19T17:09:07.548Z,9.57
2018-09-19T17:11:36.430Z,9.63
2018-09-19T17:14:04.984Z,9.77
2018-09-19T17:16:33.705Z,9.67
2018-09-19T17:19:03.276Z,9.43
2018-09-19T17:21:31.879Z,10.20
2018-09-19T17:24:01.093Z,10.50
2018-09-19T17:26:29.754Z,12.77
2018-09-19T17:28:59.051Z,15.47
2018-09-19T17:31:27.750Z,21.37
2018-09-19T17:33:57.319Z,22.23
2018-09-19T17:36:25.792Z,22.27
2018-09-19T17:38:54.461Z,22.87
2018-09-19T17:41:23.179Z,23.20
2018-09-19T17:43:51.980Z,18.17
2018-09-19T17:46:21.710Z,18.40
2018-09-19T17:48:50.436Z,17.63
2018-09-19T17:51:18.987Z,17.13
2018-09-19T17:53:47.614Z,15.43
2018-09-19T17:56:16.355Z,13.93
2018-09-19T17:58:45.033Z,13.53
2018-09-19T18:01:13.746Z,13.30
2018-09-19T18:03:42.593Z,11.27
2018-09-19T18:06:11.439Z,13.10
2018-09-19T18:08:39.966Z,14.63
2018-09-19T18:11:08.538Z,14.83
2018-09-19T18:13:37.191Z,18.73
2018-09-19T18:16:06.214Z,23.13
2018-09-19T18:18:34.732Z,18.53
2018-09-19T18:21:03.440Z,15.07
2018-09-19T18:23:31.998Z,13.87
2018-09-19T18:26:00.582Z,14.43
2018-09-19T18:28:29.053Z,14.13
2018-09-19T18:30:57.808Z,15.57
2018-09-19T18:33:26.338Z,14.83
2018-09-19T18:35:54.827Z,16.50
2018-09-19T18:38:23.423Z,15.80
2018-09-19T18:40:52.002Z,17.50
2018-09-19T18:43:20.700Z,16.70
2018-09-19T18:45:50.307Z,16.20
2018-09-19T18:48:18.977Z,17.97
2018-09-19T18:50:47.701Z,16.73
2018-09-19T18:53:16.241Z,17.33
2018-09-19T18:55:44.873Z,17.37
2018-09-19T18:58:13.415Z,17.07
2018-09-19T19:00:42.243Z,17.47
2018-09-19T19:03:10.910Z,19.07
2018-09-19T19:05:39.510Z,21.43
2018-09-19T19:08:08.197Z,21.80
2018-09-19T19:10:36.898Z,22.50
2018-09-19T19:13:05.684Z,21.37
2018-09-19T19:15:34.404Z,21.60
2018-09-19T19:18:03.102Z,21.17
2018-09-19T19:20:31.857Z,22.80
2018-09-19T19:23:00.602Z,22.13
2018-09-19T19:25:29.146Z,21.70
2018-09-19T19:27:57.785Z,19.37
2018-09-19T19:30:26.398Z,22.93
2018-09-19T19:32:55.097Z,23.63
2018-09-19T19:35:23.799Z,22.57
2018-09-19T19:37:52.330Z,22.80
2018-09-19T19:40:21.207Z,24.93
2018-09-19T19:42:49.949Z,23.43
2018-09-19T19:45:18.584Z,21.37
2018-09-19T19:47:47.147Z,23.07
2018-09-19T19:50:15.749Z,23.97
2018-09-19T19:52:44.533Z,24.17
2018-09-19T19:55:13.426Z,23.17
2018-09-19T19:57:43.483Z,23.50
2018-09-19T20:00:12.950Z,26.17
2018-09-19T20:02:41.646Z,26.53
2018-09-19T20:05:10.409Z,27.83
2018-09-19T20:07:39.143Z,30.40
2018-09-19T20:10:09.485Z,31.57
2018-09-19T20:12:38.754Z,32.67
2018-09-19T20:15:07.474Z,32.03
2018-09-19T20:17:36.144Z,30.50
2018-09-19T20:20:04.730Z,31.13
2018-09-19T20:22:33.494Z,32.07
2018-09-19T20:25:02.068Z,32.03
2018-09-19T20:27:30.734Z,31.70
2018-09-19T20:29:59.399Z,29.47
2018-09-19T20:32:27.865Z,27.53
2018-09-19T20:34:56.805Z,28.30
2018-09-19T20:37:25.336Z,27.80
2018-09-19T20:39:54.036Z,27.63
2018-09-19T20:42:23.694Z,25.50
2018-09-19T20:44:52.835Z,24.93
2018-09-19T20:47:21.505Z,25.70
2018-09-19T20:49:50.026Z,26.83
2018-09-19T20:52:18.770Z,24.77
2018-09-19T20:54:47.616Z,26.13
2018-09-19T20:57:16.208Z,25.27
2018-09-19T20:59:44.893Z,27.00
2018-09-19T21:02:13.493Z,25.83
2018-09-19T21:04:42.131Z,28.50
2018-09-19T21:07:10.681Z,28.90
2018-09-19T21:09:39.514Z,28.97
2018-09-19T21:12:08.070Z,25.70
2018-09-19T21:14:36.729Z,29.23
2018-09-19T21:17:05.393Z,29.17
2018-09-19T21:19:33.925Z,27.20
2018-09-19T21:22:03.314Z,25.17
2018-09-19T21:24:31.932Z,25.50
2018-09-19T21:27:00.493Z,27.53
2018-09-19T21:29:29.265Z,27.87
2018-09-19T21:31:57.824Z,26.50
2018-09-19T21:34:26.493Z,27.77
2018-09-19T21:36:55.059Z,28.17
2018-09-19T21:39:23.740Z,29.33
2018-09-19T21:41:52.322Z,26.40
2018-09-19T21:44:20.862Z,27.97
2018-09-19T21:46:49.505Z,26.33
2018-09-19T21:49:18.087Z,26.60
2018-09-19T21:51:46.688Z,27.10
2018-09-19T21:54:15.293Z,27.93
2018-09-19T21:56:43.853Z,26.83
2018-09-19T21:59:12.539Z,25.60
2018-09-19T22:01:42.067Z,24.93
2018-09-19T22:04:11.079Z,26.03
2018-09-19T22:06:40.106Z,26.23
2018-09-19T22:09:10.992Z,27.43
2018-09-19T22:11:40.107Z,29.03
2018-09-19T22:14:08.688Z,29.57
2018-09-19T22:16:37.295Z,31.93
2018-09-19T22:19:06.936Z,33.00
2018-09-19T22:21:35.522Z,29.57
2018-09-19T22:24:05.073Z,27.50
2018-09-19T22:26:34.055Z,27.63
2018-09-19T22:29:02.696Z,24.33
2018-09-19T22:31:31.261Z,26.13
2018-09-19T22:33:59.880Z,25.60
2018-09-19T22:36:28.418Z,28.33
2018-09-19T22:38:57.542Z,27.20
2018-09-19T22:41:26.190Z,26.47
2018-09-19T22:43:54.760Z,26.57
2018-09-19T22:46:24.345Z,27.40
2018-09-19T22:48:52.897Z,29.07
2018-09-19T22:51:21.597Z,33.10
2018-09-19T22:53:50.196Z,31.43
2018-09-19T22:56:18.761Z,32.07
2018-09-19T22:58:47.401Z,35.30
2018-09-19T23:01:16.057Z,33.97
2018-09-19T23:03:44.651Z,31.70
2018-09-19T23:06:13.322Z,28.67
2018-09-19T23:08:42.070Z,28.07
2018-09-19T23:11:10.557Z,29.37
2018-09-19T23:13:39.098Z,29.47
2018-09-19T23:16:07.911Z,29.43
2018-09-19T23:18:36.445Z,28.43
2018-09-19T23:21:05.298Z,28.13
2018-09-19T23:23:33.845Z,25.67
2018-09-19T23:26:02.447Z,27.20
2018-09-19T23:28:31.039Z,25.80
2018-09-19T23:30:59.517Z,30.00
2018-09-19T23:33:28.083Z,30.17
2018-09-19T23:35:56.655Z,27.33
2018-09-19T23:38:25.371Z,27.90
2018-09-19T23:40:53.970Z,28.30
2018-09-19T23:43:22.568Z,30.23
2018-09-19T23:45:51.224Z,31.40
2018-09-19T23:48:19.917Z,32.90
2018-09-19T23:50:49.685Z,31.00
2018-09-19T23:53:18.249Z,34.53
2018-09-19T23:55:46.883Z,37.43
2018-09-19T23:58:15.414Z,34.77
